.
WxDataArchive / Data Records for 2014-01-11
2014-01-10 January 2014 2014-01-12

Data Records for Saturday, 11 January 2014

Time	Temp	Chill	HIndex	Humid	Dewpt	 Wind 	HiWind	WindDir	Rain 	Barom 
-----	----	-----	------	-----	-----	------	------	-------	-----	----- 
00:00	39.9	39.9	39.9	96	38.9	1	6	90	0.01	29.649 
00:05	40.1	40.1	40.1	96	39.1	1	4	90	0.01	29.649 
00:10	40.1	40.1	40.1	96	39.1	1	3	90	0.01	29.649 
00:15	40.2	40.2	40.2	96	39.2	1	3	90	0.00	29.638 
00:20	40.2	40.2	40.2	96	39.2	0	1	90	0.01	29.638 
00:25	40.2	40.2	40.2	96	39.2	0	3	90	0.00	29.638 
00:30	40.3	40.3	40.3	96	39.3	1	2	90	0.01	29.623 
00:35	40.5	40.5	40.5	96	39.5	1	4	68	0.00	29.623 
00:40	40.6	40.6	40.6	96	39.5	1	4	112	0.00	29.623 
00:45	40.8	40.8	40.8	97	40.0	2	5	135	0.01	29.604 
00:50	40.8	40.8	40.8	96	39.7	2	4	90	0.00	29.604 
00:55	40.8	40.8	40.8	96	39.7	1	4	112	0.00	29.604 
01:00	40.9	40.9	40.9	96	39.8	2	5	112	0.01	29.597 
01:05	40.9	40.9	40.9	96	39.8	1	3	112	0.00	29.597 
01:10	40.9	40.9	40.9	96	39.8	2	4	90	0.00	29.597 
01:15	41.1	41.1	41.1	96	40.0	1	4	270	0.00	29.585 
01:20	40.9	40.9	40.9	96	39.8	1	4	270	0.01	29.585 
01:25	40.9	40.9	40.9	96	39.8	0	3	90	0.00	29.585 
01:30	41.1	41.1	41.1	97	40.3	1	5	112	0.00	29.571 
01:35	41.1	41.1	41.1	97	40.3	1	5	68	0.00	29.571 
01:40	41.1	41.1	41.1	97	40.3	0	2	68	0.00	29.571 
01:45	41.1	41.1	41.1	97	40.3	1	2	68	0.00	29.565 
01:50	41.2	41.2	41.2	97	40.4	0	2	68	0.00	29.565 
01:55	41.1	41.1	41.1	97	40.3	0	2	68	0.00	29.565 
02:00	41.1	41.1	41.1	97	40.3	0	1	68	0.00	29.570 
02:05	41.2	41.2	41.2	97	40.4	0	1	68	0.01	29.570 
02:10	41.3	41.3	41.3	97	40.5	0	3	68	0.00	29.570 
02:15	41.6	41.6	41.6	97	40.8	0	2	68	0.00	29.578 
02:20	41.6	41.6	41.6	97	40.8	0	2	225	0.00	29.578 
02:25	41.6	41.6	41.6	97	40.8	0	2	225	0.01	29.578 
02:30	41.6	41.6	41.6	97	40.8	0	2	225	0.00	29.570 
02:35	41.6	41.6	41.6	97	40.8	0	2	225	0.00	29.570 
02:40	41.5	41.5	41.5	97	40.7	0	1	225	0.00	29.570 
02:45	41.3	41.3	41.3	97	40.5	0	2	225	0.00	29.565 
02:50	41.2	41.2	41.2	97	40.4	0	1	225	0.00	29.565 
02:55	41.1	41.1	41.1	97	40.3	0	1	225	0.00	29.565 
03:00	40.9	40.9	40.9	97	40.1	0	1	225	0.00	29.561 
03:05	40.8	40.8	40.8	97	40.0	0	1	225	0.00	29.561 
03:10	40.6	40.6	40.6	97	39.8	0	0	---	0.00	29.561 
03:15	40.6	40.6	40.6	97	39.8	0	1	225	0.00	29.550 
03:20	40.6	40.6	40.6	97	39.8	0	1	225	0.00	29.550 
03:25	40.6	40.6	40.6	97	39.8	0	0	---	0.00	29.550 
03:30	40.6	40.6	40.6	97	39.8	0	1	225	0.00	29.541 
03:35	40.6	40.6	40.6	97	39.8	0	1	225	0.00	29.541 
03:40	40.6	40.6	40.6	97	39.8	0	0	---	0.01	29.541 
03:45	40.6	40.6	40.6	97	39.8	0	0	---	0.00	29.535 
03:50	40.6	40.6	40.6	97	39.8	0	0	---	0.00	29.535 
03:55	40.5	40.5	40.5	97	39.7	0	1	225	0.00	29.535 
04:00	40.3	40.3	40.3	97	39.5	0	0	---	0.00	29.520 
04:05	40.3	40.3	40.3	97	39.5	0	0	---	0.00	29.520 
04:10	40.2	40.2	40.2	97	39.4	0	0	---	0.00	29.520 
04:15	40.2	40.2	40.2	97	39.4	0	1	225	0.00	29.521 
04:20	40.3	40.3	40.3	97	39.5	0	0	---	0.00	29.521 
04:25	40.3	40.3	40.3	97	39.5	0	0	---	0.00	29.521 
04:30	40.2	40.2	40.2	97	39.4	0	0	---	0.00	29.516 
04:35	40.1	40.1	40.1	97	39.3	0	0	---	0.00	29.516 
04:40	39.9	39.9	39.9	97	39.1	0	0	---	0.00	29.516 
04:45	39.9	39.9	39.9	97	39.1	0	1	225	0.00	29.517 
04:50	40.1	40.1	40.1	97	39.3	0	1	225	0.00	29.517 
04:55	40.2	40.2	40.2	97	39.4	0	1	225	0.00	29.517 
05:00	40.2	40.2	40.2	97	39.4	0	1	225	0.00	29.503 
05:05	40.2	40.2	40.2	97	39.4	0	1	225	0.00	29.503 
05:10	40.2	40.2	40.2	97	39.4	0	1	225	0.00	29.503 
05:15	40.2	40.2	40.2	97	39.4	0	1	225	0.00	29.490 
05:20	40.5	40.5	40.5	97	39.7	0	1	225	0.00	29.490 
05:25	40.8	40.8	40.8	97	40.0	0	2	225	0.00	29.490 
05:30	40.9	40.9	40.9	97	40.1	0	3	225	0.00	29.474 
05:35	41.1	41.1	41.1	97	40.3	0	2	225	0.00	29.474 
05:40	40.9	40.9	40.9	97	40.1	0	2	225	0.00	29.474 
05:45	40.8	40.8	40.8	97	40.0	0	3	202	0.00	29.459 
05:50	40.8	40.8	40.8	97	40.0	0	2	202	0.00	29.459 
05:55	40.8	40.8	40.8	97	40.0	0	1	180	0.00	29.459 
06:00	40.6	40.6	40.6	97	39.8	0	3	135	0.00	29.441 
06:05	40.8	40.8	40.8	97	40.0	1	3	135	0.00	29.441 
06:10	40.8	40.8	40.8	97	40.0	1	3	112	0.00	29.441 
06:15	40.8	40.8	40.8	97	40.0	0	2	112	0.00	29.445 
06:20	40.5	40.5	40.5	97	39.7	0	1	112	0.00	29.445 
06:25	40.3	40.3	40.3	97	39.5	0	1	112	0.00	29.445 
06:30	40.3	40.3	40.3	97	39.5	0	2	112	0.00	29.453 
06:35	40.5	40.5	40.5	97	39.7	0	2	112	0.00	29.453 
06:40	40.6	40.6	40.6	97	39.8	1	3	112	0.00	29.453 
06:45	40.6	40.6	40.6	97	39.8	0	2	112	0.00	29.440 
06:50	40.8	40.8	40.8	97	40.0	0	2	112	0.00	29.440 
06:55	40.6	40.6	40.6	97	39.8	0	2	112	0.01	29.440 
07:00	40.5	40.5	40.5	97	39.7	0	2	112	0.00	29.430 
07:05	40.5	40.5	40.5	97	39.7	0	2	112	0.00	29.430 
07:10	40.6	40.6	40.6	97	39.8	0	3	112	0.00	29.430 
07:15	40.6	40.6	40.6	97	39.8	0	2	112	0.00	29.431 
07:20	40.8	40.8	40.8	97	40.0	0	2	112	0.00	29.431 
07:25	40.9	40.9	40.9	97	40.1	0	2	112	0.00	29.431 
07:30	40.8	40.8	40.8	97	40.0	0	2	112	0.00	29.427 
07:35	40.9	40.9	40.9	97	40.1	0	1	112	0.00	29.427 
07:40	40.9	40.9	40.9	97	40.1	0	3	112	0.00	29.427 
07:45	41.1	41.1	41.1	97	40.3	0	2	112	0.01	29.424 
07:50	41.1	41.1	41.1	97	40.3	0	1	112	0.00	29.424 
07:55	41.1	41.1	41.1	97	40.3	0	2	112	0.01	29.424 
08:00	41.2	41.2	41.2	97	40.4	0	3	248	0.00	29.417 
08:05	41.2	41.2	41.2	97	40.4	1	3	248	0.00	29.417 
08:10	41.3	41.3	41.3	97	40.5	0	2	248	0.00	29.417 
08:15	41.3	41.3	41.3	97	40.5	0	2	248	0.00	29.410 
08:20	41.3	41.3	41.3	97	40.5	0	2	248	0.00	29.410 
08:25	41.3	41.3	41.3	97	40.5	0	1	248	0.00	29.410 
08:30	41.3	41.3	41.3	97	40.5	0	3	248	0.00	29.414 
08:35	41.3	41.3	41.3	97	40.5	1	3	248	0.00	29.414 
08:40	41.5	41.5	41.5	97	40.7	1	2	248	0.00	29.414 
08:45	41.8	41.8	41.8	97	41.0	1	4	248	0.00	29.410 
08:50	41.9	41.9	41.9	97	41.1	1	5	248	0.00	29.410 
08:55	42.1	42.1	42.1	97	41.3	2	5	248	0.00	29.410 
09:00	42.1	42.1	42.1	97	41.3	1	5	248	0.00	29.415 
09:05	41.9	41.9	41.9	97	41.1	1	3	270	0.00	29.415 
09:10	41.8	41.8	41.8	97	41.0	0	2	270	0.00	29.415 
09:15	41.6	41.6	41.6	97	40.8	0	1	270	0.00	29.419 
09:20	41.6	41.6	41.6	97	40.8	0	2	270	0.00	29.419 
09:25	41.5	41.5	41.5	97	40.7	0	2	270	0.00	29.419 
09:30	41.5	41.5	41.5	97	40.7	1	4	270	0.00	29.415 
09:35	41.6	41.6	41.6	97	40.8	0	3	270	0.00	29.415 
09:40	41.5	41.5	41.5	97	40.7	1	4	270	0.00	29.415 
09:45	41.5	41.5	41.5	97	40.7	1	4	270	0.00	29.421 
09:50	41.6	41.6	41.6	97	40.8	2	7	248	0.00	29.421 
09:55	41.5	41.5	41.5	97	40.7	2	6	270	0.00	29.421 
10:00	41.5	41.5	41.5	97	40.7	2	7	248	0.00	29.427 
10:05	41.3	41.3	41.3	97	40.5	2	6	248	0.00	29.427 
10:10	41.1	41.1	41.1	97	40.3	2	7	248	0.00	29.427 
10:15	40.9	40.9	40.9	97	40.1	2	7	270	0.00	29.426 
10:20	40.8	40.8	40.8	97	40.0	3	6	248	0.00	29.426 
10:25	40.6	40.6	40.6	97	39.8	2	7	270	0.00	29.426 
10:30	40.5	40.5	40.5	97	39.7	2	7	270	0.00	29.427 
10:35	40.5	40.5	40.5	97	39.7	2	6	248	0.00	29.427 
10:40	40.3	40.3	40.3	97	39.5	2	6	270	0.00	29.427 
10:45	40.3	40.3	40.3	97	39.5	2	5	248	0.00	29.427 
10:50	40.2	40.2	40.2	97	39.4	2	5	270	0.00	29.427 
10:55	40.1	40.1	40.1	97	39.3	2	7	248	0.00	29.427 
11:00	39.9	39.9	39.9	97	39.1	2	7	248	0.00	29.442 
11:05	39.8	39.8	39.8	97	39.0	2	6	248	0.00	29.442 
11:10	39.5	39.5	39.5	97	38.7	2	5	248	0.00	29.442 
11:15	39.3	39.3	39.3	97	38.5	2	7	270	0.00	29.440 
11:20	39.1	36.3	39.1	97	38.3	4	10	270	0.00	29.440 
11:25	38.9	38.9	38.9	97	38.1	3	7	270	0.00	29.440 
11:30	38.6	38.6	38.6	97	37.8	2	7	248	0.00	29.437 
11:35	38.5	38.5	38.5	97	37.7	3	10	248	0.00	29.437 
11:40	38.3	38.3	38.3	97	37.5	1	4	248	0.00	29.437 
11:45	38.2	38.2	38.2	97	37.4	3	7	225	0.00	29.440 
11:50	37.9	37.9	37.9	97	37.1	2	5	248	0.01	29.440 
11:55	37.8	37.8	37.8	97	37.0	2	3	248	0.00	29.440 
12:00	37.6	37.6	37.6	97	36.8	1	4	248	0.00	29.440 
12:05	37.5	37.5	37.5	97	36.7	2	5	248	0.00	29.440 
12:10	37.3	37.3	37.3	97	36.5	3	7	248	0.00	29.440 
12:15	37.0	37.0	37.0	97	36.2	2	7	248	0.00	29.442 
12:20	36.9	36.9	36.9	97	36.1	3	8	248	0.00	29.442 
12:25	36.8	33.6	36.8	97	36.0	4	8	248	0.00	29.442 
12:30	36.6	36.6	36.6	97	35.8	2	7	248	0.00	29.440 
12:35	36.5	36.5	36.5	97	35.7	3	9	248	0.00	29.440 
12:40	36.3	36.3	36.3	97	35.5	3	7	248	0.01	29.440 
12:45	36.2	36.2	36.2	97	35.4	3	6	248	0.00	29.443 
12:50	36.0	36.0	36.0	97	35.2	3	11	248	0.00	29.443 
12:55	35.9	35.9	35.9	97	35.1	2	5	248	0.00	29.443 
13:00	35.8	32.5	35.8	97	35.0	4	7	270	0.00	29.448 
13:05	35.6	35.6	35.6	97	34.8	2	6	248	0.00	29.448 
13:10	35.6	35.6	35.6	97	34.8	2	6	270	0.00	29.448 
13:15	35.5	35.5	35.5	97	34.7	3	7	248	0.00	29.446 
13:20	35.3	35.3	35.3	97	34.5	3	7	248	0.00	29.446 
13:25	35.2	35.2	35.2	97	34.4	3	9	270	0.00	29.446 
13:30	35.0	35.0	35.0	97	34.2	3	6	248	0.00	29.447 
13:35	35.0	35.0	35.0	97	34.2	3	6	270	0.00	29.447 
13:40	34.9	34.9	34.9	97	34.1	2	5	248	0.00	29.447 
13:45	34.9	34.9	34.9	97	34.1	3	6	248	0.00	29.456 
13:50	34.7	34.7	34.7	97	33.9	3	7	248	0.00	29.456 
13:55	34.6	34.6	34.6	97	33.8	3	11	270	0.00	29.456 
14:00	34.6	34.6	34.6	97	33.8	3	6	248	0.00	29.458 
14:05	34.6	34.6	34.6	97	33.8	2	7	270	0.00	29.458 
14:10	34.4	34.4	34.4	97	33.6	3	10	270	0.00	29.458 
14:15	34.3	34.3	34.3	97	33.5	3	7	270	0.00	29.463 
14:20	34.1	34.1	34.1	97	33.3	3	6	248	0.00	29.463 
14:25	34.1	34.1	34.1	97	33.3	3	7	248	0.00	29.463 
14:30	34.1	34.1	34.1	97	33.3	3	5	248	0.00	29.471 
14:35	34.1	34.1	34.1	97	33.3	2	5	248	0.00	29.471 
14:40	34.1	34.1	34.1	97	33.3	2	5	248	0.00	29.471 
14:45	34.0	34.0	34.0	97	33.2	3	6	248	0.00	29.479 
14:50	33.8	33.8	33.8	97	33.0	3	5	270	0.00	29.479 
14:55	33.7	33.7	33.7	97	32.9	3	7	270	0.00	29.479 
15:00	33.7	33.7	33.7	97	32.9	2	5	248	0.00	29.486 
15:05	33.7	33.7	33.7	96	32.7	2	6	270	0.00	29.486 
15:10	33.5	33.5	33.5	96	32.5	3	6	270	0.00	29.486 
15:15	33.5	33.5	33.5	96	32.5	2	7	270	0.00	29.490 
15:20	33.5	33.5	33.5	96	32.5	2	6	270	0.00	29.490 
15:25	33.5	33.5	33.5	96	32.5	2	9	270	0.00	29.490 
15:30	33.5	33.5	33.5	96	32.5	2	5	270	0.00	29.497 
15:35	33.5	33.5	33.5	96	32.5	3	6	270	0.00	29.497 
15:40	33.5	33.5	33.5	96	32.5	2	4	270	0.00	29.497 
15:45	33.5	33.5	33.5	96	32.5	2	6	270	0.00	29.511 
15:50	33.5	33.5	33.5	96	32.5	3	7	248	0.00	29.511 
15:55	33.4	33.4	33.4	96	32.4	2	6	270	0.00	29.511 
16:00	33.4	33.4	33.4	96	32.4	3	7	248	0.00	29.534 
16:05	33.4	33.4	33.4	96	32.4	3	7	270	0.00	29.534 
16:10	33.4	33.4	33.4	96	32.4	1	6	248	0.00	29.534 
16:15	33.4	33.4	33.4	96	32.4	3	6	270	0.00	29.541 
16:20	33.2	33.2	33.2	96	32.2	2	7	270	0.00	29.541 
16:25	33.2	33.2	33.2	96	32.2	3	6	270	0.00	29.541 
16:30	33.4	33.4	33.4	96	32.4	3	5	270	0.00	29.545 
16:35	33.4	33.4	33.4	96	32.4	2	6	248	0.00	29.545 
16:40	33.4	33.4	33.4	96	32.4	1	5	270	0.00	29.545 
16:45	33.4	33.4	33.4	95	32.1	3	7	248	0.00	29.557 
16:50	33.4	33.4	33.4	95	32.1	3	9	270	0.00	29.557 
16:55	33.4	33.4	33.4	95	32.1	3	9	270	0.00	29.557 
17:00	33.4	33.4	33.4	95	32.1	2	7	270	0.00	29.560 
17:05	33.4	33.4	33.4	94	31.9	3	10	248	0.00	29.560 
17:10	33.4	33.4	33.4	94	31.9	3	7	270	0.00	29.560 
17:15	33.4	33.4	33.4	94	31.9	2	6	248	0.00	29.570 
17:20	33.2	33.2	33.2	94	31.7	2	9	270	0.00	29.570 
17:25	33.2	33.2	33.2	94	31.7	2	6	270	0.00	29.570 
17:30	33.1	33.1	33.1	94	31.6	3	9	270	0.00	29.574 
17:35	33.1	33.1	33.1	93	31.3	2	5	248	0.00	29.574 
17:40	32.9	29.1	32.9	93	31.1	4	10	270	0.00	29.574 
17:45	32.9	32.9	32.9	93	31.1	2	6	248	0.00	29.584 
17:50	32.9	32.9	32.9	93	31.1	3	9	248	0.00	29.584 
17:55	32.9	32.9	32.9	93	31.1	2	5	270	0.00	29.584 
18:00	32.9	32.9	32.9	92	30.8	2	5	270	0.00	29.590 
18:05	32.9	32.9	32.9	92	30.8	2	4	270	0.00	29.590 
18:10	33.1	33.1	33.1	91	30.8	2	5	270	0.00	29.590 
18:15	33.1	33.1	33.1	91	30.8	1	3	270	0.00	29.591 
18:20	33.1	33.1	33.1	90	30.5	2	5	270	0.00	29.591 
18:25	33.1	33.1	33.1	89	30.2	2	4	270	0.00	29.591 
18:30	33.2	33.2	33.2	88	30.0	1	3	270	0.00	29.599 
18:35	33.2	33.2	33.2	88	30.0	1	4	270	0.00	29.599 
18:40	33.2	33.2	33.2	87	29.8	1	5	270	0.00	29.599 
18:45	33.4	33.4	33.4	87	30.0	1	3	270	0.00	29.606 
18:50	33.2	33.2	33.2	87	29.8	2	5	270	0.00	29.606 
18:55	33.2	33.2	33.2	87	29.8	3	5	270	0.00	29.606 
19:00	33.2	33.2	33.2	86	29.5	2	5	248	0.00	29.616 
19:05	33.2	33.2	33.2	86	29.5	2	6	270	0.00	29.616 
19:10	33.2	33.2	33.2	85	29.2	2	5	270	0.00	29.616 
19:15	33.2	33.2	33.2	84	28.9	3	6	270	0.00	29.623 
19:20	33.2	33.2	33.2	84	28.9	2	6	270	0.00	29.623 
19:25	33.4	33.4	33.4	84	29.1	2	5	270	0.00	29.623 
19:30	33.2	33.2	33.2	83	28.6	3	9	270	0.00	29.632 
19:35	33.4	33.4	33.4	83	28.8	2	6	292	0.00	29.632 
19:40	33.4	33.4	33.4	83	28.8	2	5	270	0.00	29.632 
19:45	33.4	33.4	33.4	83	28.8	3	6	248	0.00	29.636 
19:50	33.4	33.4	33.4	82	28.5	2	8	248	0.00	29.636 
19:55	33.4	33.4	33.4	82	28.5	2	5	248	0.00	29.636 
20:00	33.4	33.4	33.4	83	28.8	2	6	270	0.00	29.639 
20:05	33.4	33.4	33.4	83	28.8	3	6	248	0.00	29.639 
20:10	33.4	33.4	33.4	82	28.5	2	6	248	0.00	29.639 
20:15	33.4	33.4	33.4	82	28.5	3	6	248	0.00	29.646 
20:20	33.4	33.4	33.4	82	28.5	2	7	248	0.00	29.646 
20:25	33.4	33.4	33.4	81	28.2	2	5	248	0.00	29.646 
20:30	33.5	33.5	33.5	81	28.3	3	6	248	0.00	29.650 
20:35	33.5	33.5	33.5	81	28.3	2	4	248	0.00	29.650 
20:40	33.5	33.5	33.5	81	28.3	2	5	248	0.00	29.650 
20:45	33.5	33.5	33.5	82	28.6	1	2	248	0.00	29.656 
20:50	33.5	33.5	33.5	82	28.6	1	4	248	0.00	29.656 
20:55	33.5	33.5	33.5	82	28.6	2	4	248	0.00	29.656 
21:00	33.5	33.5	33.5	82	28.6	1	3	270	0.00	29.666 
21:05	33.5	33.5	33.5	83	28.9	2	5	270	0.00	29.666 
21:10	33.5	33.5	33.5	83	28.9	3	5	270	0.00	29.666 
21:15	33.5	33.5	33.5	83	28.9	2	7	248	0.00	29.671 
21:20	33.5	33.5	33.5	83	28.9	2	4	270	0.00	29.671 
21:25	33.5	33.5	33.5	83	28.9	2	5	270	0.00	29.671 
21:30	33.7	33.7	33.7	83	29.1	2	4	248	0.00	29.677 
21:35	33.7	33.7	33.7	83	29.1	2	3	248	0.00	29.677 
21:40	33.8	33.8	33.8	83	29.2	3	5	270	0.00	29.677 
21:45	33.8	33.8	33.8	82	28.9	2	4	270	0.00	29.683 
21:50	34.0	34.0	34.0	82	29.1	2	4	248	0.00	29.683 
21:55	34.0	34.0	34.0	82	29.1	3	6	270	0.00	29.683 
22:00	34.0	34.0	34.0	82	29.1	2	4	270	0.00	29.692 
22:05	34.0	34.0	34.0	82	29.1	2	7	248	0.00	29.692 
22:10	34.0	34.0	34.0	83	29.4	3	5	270	0.00	29.692 
22:15	34.0	34.0	34.0	83	29.4	3	6	270	0.00	29.699 
22:20	33.8	33.8	33.8	83	29.2	2	5	270	0.00	29.699 
22:25	33.8	33.8	33.8	83	29.2	2	4	248	0.00	29.699 
22:30	33.8	33.8	33.8	83	29.2	2	6	292	0.00	29.708 
22:35	33.8	33.8	33.8	83	29.2	2	4	248	0.00	29.708 
22:40	33.8	33.8	33.8	83	29.2	3	6	270	0.00	29.708 
22:45	33.8	33.8	33.8	83	29.2	3	5	248	0.00	29.709 
22:50	33.8	33.8	33.8	83	29.2	1	4	270	0.00	29.709 
22:55	33.8	33.8	33.8	83	29.2	2	6	248	0.00	29.709 
23:00	33.8	33.8	33.8	83	29.2	1	3	248	0.00	29.715 
23:05	33.7	33.7	33.7	83	29.1	1	3	248	0.00	29.715 
23:10	33.7	33.7	33.7	83	29.1	1	3	248	0.00	29.715 
23:15	33.7	33.7	33.7	83	29.1	0	2	248	0.00	29.718 
23:20	33.7	33.7	33.7	83	29.1	1	2	248	0.00	29.718 
23:25	33.7	33.7	33.7	83	29.1	1	3	248	0.00	29.718 
23:30	33.7	33.7	33.7	83	29.1	1	3	270	0.00	29.731 
23:35	33.7	33.7	33.7	83	29.1	1	5	315	0.00	29.731 
23:40	33.7	33.7	33.7	83	29.1	1	2	248	0.00	29.731 
23:45	33.7	33.7	33.7	83	29.1	1	3	248	0.00	29.725 
23:50	33.7	33.7	33.7	83	29.1	1	4	248	0.00	29.725 
23:55	33.5	33.5	33.5	83	28.9	1	4	248	0.00	29.725 

CoCoRaHS
IN-AL-39
A2 Web Hosting
Creative Commons License
GoDaddy
search engine by freefind advanced

loaded 2018-11-16 11:54:13 • last modified 2010-11-18 10:43:29
Privacy PolicyDisclaimer
• wx.awcolley.com is powered by PmWiki v.2002016 •
• all content (unless otherwise noted) © 2018 A W Colley